x

West Sea Otter (46204) Wave Buoy

5:00 - Wed 28th Sep 2016 All times are PDT. -7 hours from GMT.

  • Sig Wave height 3.9ft
  • Peak Period 8s
  • Wind
    4mph, 7mph gusts
  • Sea Temp 53°f
  • Air Temp 51°f
  • Sea Pressure 1023.7mb
  • West Sea Otter
  • West Sea Otter

More Historic Weather Station data

Upgrade to MSW Pro to gain access to the past 30 days of data for over 8000 Wavebouys and Weather Stations around the globe.

Join Pro

Comparision Forecast

View Surf forecast
   
mer. 09/28 5:00 4ft 8s 4 7 mph 1023.7mb 53f 51f
4:00 3.5ft 8s 4
mph
1024mb 53f 51f
3:00 3.5ft 8s 4
mph
1024.3mb 53f 52f
2:00 4.5ft 8s 4
mph
1024.6mb 53f 52f
1:00 4.5ft 8s 4 7 mph 1024.9mb 53f 52f
12:00 4.5ft 10s 4
mph
1025.2mb 53f 52f
mar. 09/27 11:00 4.5ft 8s 2 4 mph 1025.3mb 53f 52f
10:00 4.5ft 9s 4 7 mph 1025.6mb 53f 52f
9:00 4.5ft 9s 7 9 mph 1025.7mb 53f 53f
8:00 4ft 8s 7 9 mph 1026mb 54f 53f
7:00 4.5ft 8s 7 9 mph 1026mb 54f 53f
6:00 4.5ft 10s 9
mph
1026.4mb 54f 54f
5:00 4.5ft 9s 7
mph
1026.9mb 54f 54f
4:00 4ft 9s 4 7 mph 1027.2mb 55f 55f
3:00 4.5ft 10s 4
mph
1027.4mb 55f 55f
2:00 4.5ft 10s 4 7 mph 1027.7mb 55f 55f
1:00 5ft 8s 2 4 mph 1027.9mb 55f 55f
12:00 4.5ft 10s 4
mph
1027.7mb 54f 55f
11:00 5ft 9s 4 7 mph 1027.8mb 53f 55f
10:00 5ft 8s 4
mph
1027.3mb 53f 54f
9:00 5ft 10s 4
mph
1027mb 53f 54f
8:00 5ft 10s 4 7 mph 1026.9mb 52f 53f
7:00 5ft 10s 7
mph
1026.4mb 52f 53f
6:00 4.5ft 9s 4 7 mph 1026.2mb 52f 53f
5:00 5ft 10s 9 11 mph 1025.8mb 52f 53f
4:00 5ft 11s 7 9 mph 1025.5mb 52f 53f
3:00 5ft 10s 9 11 mph 1025mb 52f 53f
2:00 6ft 10s 9 11 mph 1024.4mb 53f 53f
1:00 5.5ft 8s 9 11 mph 1023.7mb 53f 53f
12:00 6ft 10s 9 11 mph 1023.3mb 53f 53f
lun. 09/26 11:00 6.5ft 9s 9 11 mph 1022.4mb 53f 54f
10:00 7ft 10s 7 9 mph 1022mb 53f 53f
9:00 6.5ft 10s 9 11 mph 1021.1mb 53f 54f
8:00 6.5ft 10s 9 11 mph 1020.5mb 53f 54f
7:00 7ft 10s 7 9 mph 1019.8mb 52f 53f
6:00 7ft 11s 7 9 mph 1019.4mb 52f 54f
5:00 6.5ft 9s 9
mph
1019mb 53f 54f
4:00 6.5ft 11s 9 11 mph 1018.3mb 53f 53f
3:00 7ft 11s 11 13 mph 1017.5mb 53f 53f
2:00 7ft 11s 11 13 mph 1016.5mb 53f 53f
1:00 8.5ft 11s 13 18 mph 1015.6mb 53f 54f
12:00 9ft 11s 16 20 mph 1014.5mb 53f 56f
11:00 9ft 10s 18 22 mph 1013.9mb 53f 56f
10:00 9ft 10s 25 29 mph 1013.4mb 53f 57f
9:00 10ft 9s 25 34 mph 1013.9mb 53f 57f
8:00 10.5ft 9s 18 22 mph 1013.9mb 53f 55f
7:00 10ft 10s 20 25 mph 1014.4mb 53f 55f
6:00 10ft 9s 25 29 mph 1014.5mb 53f 55f
5:00 8.5ft 6s 27 31 mph 1015.1mb 53f 55f
4:00 8.5ft 8s 25 31 mph 1016.3mb 53f 55f
3:00 9ft 7s 27 34 mph 1016.8mb 53f 55f
2:00 9ft 8s 22 29 mph 1017.9mb 53f 55f
1:00 9ft 7s 22 31 mph 1018.5mb 53f 55f
12:00 8ft 7s 22 27 mph 1018.6mb 53f 55f
dim. 09/25 11:00 8.5ft 6s 22 27 mph 1018.9mb 53f 55f
10:00 8ft 6s 25 31 mph 1019.1mb 53f 54f
9:00 9ft 6s 25 29 mph 1019.8mb 53f 54f
8:00 9ft 6s 22 25 mph 1020.6mb 53f 54f
7:00 9ft 6s 22 29 mph 1020.7mb 52f 55f
6:00 10ft 6s 25 29 mph 1020.9mb 52f 55f
5:00  -   -  25
mph
- - 55f
4:00 11.5ft 7s 22 27 mph 1022.4mb 52f 55f
3:00 11ft 6s 22 29 mph 1022.8mb 52f 55f
2:00 12ft 7s 25 31 mph 1022.3mb 53f 54f
1:00 11ft 7s 25 31 mph 1022.4mb 53f 54f
12:00 10ft 8s 25 31 mph 1022.4mb 52f 54f
11:00 10ft 9s 27 36 mph 1021.7mb 52f 53f
10:00 9.5ft 10s 31 38 mph 1021.3mb 52f 53f
9:00 9.5ft 11s 31 36 mph 1021.2mb 52f 53f
8:00 10ft 10s 25 31 mph 1021.6mb 52f 52f
7:00 10.5ft 10s 27 31 mph 1021.3mb 52f 53f
6:00 10.5ft 7s 27 31 mph 1021.2mb 52f 54f
5:00 11.5ft 7s 31 40 mph 1020.6mb 52f 55f
4:00 13ft 7s 31 43 mph 1020.3mb 52f 55f
3:00 13.5ft 9s 29 38 mph 1019.3mb 52f 55f
2:00 13.5ft 7s 31 40 mph 1018.4mb 53f 54f
1:00 16ft 8s 31 40 mph 1017.8mb 53f 54f
12:00 15.5ft 8s 31 43 mph 1017.3mb 53f 54f
sam. 09/24 11:00 14ft 8s 34 43 mph 1016.9mb 53f 54f
10:00 11ft 7s 36 45 mph 1016.1mb 53f 54f
9:00 11ft 6s 38 49 mph 1015.9mb 53f 54f
8:00 11ft 7s 38 47 mph 1016.3mb 53f 53f
7:00 9ft 10s 36 47 mph 1017.3mb 53f 53f
6:00 8ft 10s 36 45 mph 1018mb 53f 52f
5:00 8ft 11s 31 38 mph 1019.6mb 53f 52f
4:00 7ft 10s 29 38 mph 1020.3mb 53f 53f
3:00 7ft 11s 25 29 mph 1021.5mb 53f 53f
2:00 7ft 11s 27 31 mph 1021.5mb 53f 53f